sensor_id;sensor_type;location;lat;lon;timestamp;pressure;altitude;pressure_sealevel;temperature;humidity
46598;BME280;32318;48.858;8.252;2023-08-20T00:01:39;100580.56;;;24.55;71.24
46598;BME280;32318;48.858;8.252;2023-08-20T00:09:39;100574.94;;;24.45;70.80
46598;BME280;32318;48.858;8.252;2023-08-20T00:17:40;100585.72;;;24.35;71.29
46598;BME280;32318;48.858;8.252;2023-08-20T00:25:41;100597.03;;;24.26;71.53
46598;BME280;32318;48.858;8.252;2023-08-20T00:33:42;100604.03;;;24.22;70.92
46598;BME280;32318;48.858;8.252;2023-08-20T00:41:42;100606.59;;;24.12;72.04
46598;BME280;32318;48.858;8.252;2023-08-20T00:49:42;100597.25;;;24.08;71.66
46598;BME280;32318;48.858;8.252;2023-08-20T00:57:43;100605.34;;;24.03;72.22
46598;BME280;32318;48.858;8.252;2023-08-20T01:05:50;100608.66;;;24.05;73.21
46598;BME280;32318;48.858;8.252;2023-08-20T01:13:58;100599.09;;;23.90;73.50
46598;BME280;32318;48.858;8.252;2023-08-20T01:30:37;100607.06;;;23.80;73.54
46598;BME280;32318;48.858;8.252;2023-08-20T01:38:37;100627.13;;;23.74;73.94
46598;BME280;32318;48.858;8.252;2023-08-20T01:46:38;100634.72;;;23.72;74.05
46598;BME280;32318;48.858;8.252;2023-08-20T01:54:38;100627.88;;;23.69;74.33
46598;BME280;32318;48.858;8.252;2023-08-20T02:02:38;100640.09;;;23.67;74.40
46598;BME280;32318;48.858;8.252;2023-08-20T02:10:38;100629.31;;;23.60;74.37
46598;BME280;32318;48.858;8.252;2023-08-20T02:18:39;100601.84;;;23.49;74.65
46598;BME280;32318;48.858;8.252;2023-08-20T02:26:39;100590.75;;;23.39;74.64
46598;BME280;32318;48.858;8.252;2023-08-20T02:34:39;100573.34;;;23.28;74.81
46598;BME280;32318;48.858;8.252;2023-08-20T02:42:40;100589.69;;;23.16;74.65
46598;BME280;32318;48.858;8.252;2023-08-20T02:50:40;100593.13;;;23.12;74.91
46598;BME280;32318;48.858;8.252;2023-08-20T02:58:40;100580.84;;;22.97;75.01
46598;BME280;32318;48.858;8.252;2023-08-20T03:06:41;100564.38;;;22.92;75.60
46598;BME280;32318;48.858;8.252;2023-08-20T03:14:41;100564.38;;;22.92;75.43
46598;BME280;32318;48.858;8.252;2023-08-20T03:22:41;100580.25;;;22.95;75.87
46598;BME280;32318;48.858;8.252;2023-08-20T03:30:41;100587.38;;;22.96;75.46
46598;BME280;32318;48.858;8.252;2023-08-20T03:38:42;100589.75;;;22.93;75.73
46598;BME280;32318;48.858;8.252;2023-08-20T03:46:42;100601.56;;;22.86;75.30
46598;BME280;32318;48.858;8.252;2023-08-20T03:54:42;100588.66;;;22.70;75.09
46598;BME280;32318;48.858;8.252;2023-08-20T04:02:43;100594.41;;;22.38;76.34
46598;BME280;32318;48.858;8.252;2023-08-20T04:10:43;100620.84;;;22.49;76.96
46598;BME280;32318;48.858;8.252;2023-08-20T04:18:46;100604.97;;;22.46;76.98
46598;BME280;32318;48.858;8.252;2023-08-20T04:26:48;100608.41;;;22.42;77.66
46598;BME280;32318;48.858;8.252;2023-08-20T04:34:48;100608.66;;;22.52;76.51
46598;BME280;32318;48.858;8.252;2023-08-20T04:42:51;100611.22;;;22.47;77.25
46598;BME280;32318;48.858;8.252;2023-08-20T04:50:51;100638.44;;;22.47;77.68
46598;BME280;32318;48.858;8.252;2023-08-20T04:58:51;100633.59;;;22.49;77.42
46598;BME280;32318;48.858;8.252;2023-08-20T05:06:52;100644.63;;;22.54;77.81
46598;BME280;32318;48.858;8.252;2023-08-20T05:14:52;100636.81;;;22.58;77.61
46598;BME280;32318;48.858;8.252;2023-08-20T05:22:55;100638.50;;;22.70;77.66
46598;BME280;32318;48.858;8.252;2023-08-20T05:30:58;100641.09;;;22.89;76.82
46598;BME280;32318;48.858;8.252;2023-08-20T05:39:01;100653.16;;;23.05;77.47
46598;BME280;32318;48.858;8.252;2023-08-20T05:47:03;100654.22;;;23.16;76.52
46598;BME280;32318;48.858;8.252;2023-08-20T05:55:05;100654.59;;;23.19;76.33
46598;BME280;32318;48.858;8.252;2023-08-20T06:03:06;100673.91;;;23.06;77.51
46598;BME280;32318;48.858;8.252;2023-08-20T06:11:07;100677.81;;;23.10;77.16
46598;BME280;32318;48.858;8.252;2023-08-20T06:19:07;100686.47;;;23.19;77.22
46598;BME280;32318;48.858;8.252;2023-08-20T06:27:08;100698.81;;;23.86;75.40
46598;BME280;32318;48.858;8.252;2023-08-20T06:35:10;100695.53;;;24.42;73.77
46598;BME280;32318;48.858;8.252;2023-08-20T06:43:11;100687.13;;;24.61;73.21
46598;BME280;32318;48.858;8.252;2023-08-20T06:51:19;100695.41;;;25.00;72.79
46598;BME280;32318;48.858;8.252;2023-08-20T06:59:19;100701.84;;;25.11;72.51
46598;BME280;32318;48.858;8.252;2023-08-20T07:07:20;100702.97;;;25.10;72.52
46598;BME280;32318;48.858;8.252;2023-08-20T07:15:20;100707.19;;;25.00;73.07
46598;BME280;32318;48.858;8.252;2023-08-20T07:23:21;100716.22;;;24.84;73.15
46598;BME280;32318;48.858;8.252;2023-08-20T07:31:25;100716.19;;;25.01;72.62
46598;BME280;32318;48.858;8.252;2023-08-20T07:39:29;100719.41;;;25.15;72.26
46598;BME280;32318;48.858;8.252;2023-08-20T07:47:33;100726.38;;;25.40;71.83
46598;BME280;32318;48.858;8.252;2023-08-20T07:55:33;100720.19;;;25.49;71.48
46598;BME280;32318;48.858;8.252;2023-08-20T08:03:34;100716.63;;;25.66;70.96
46598;BME280;32318;48.858;8.252;2023-08-20T08:11:37;100726.09;;;25.80;70.91
46598;BME280;32318;48.858;8.252;2023-08-20T08:19:37;100737.22;;;25.96;70.42
46598;BME280;32318;48.858;8.252;2023-08-20T08:27:38;100739.06;;;26.12;69.96
46598;BME280;32318;48.858;8.252;2023-08-20T08:35:38;100731.03;;;26.28;69.48
46598;BME280;32318;48.858;8.252;2023-08-20T08:43:40;100739.84;;;26.57;68.11
46598;BME280;32318;48.858;8.252;2023-08-20T08:51:41;100740.34;;;26.54;68.74
46598;BME280;32318;48.858;8.252;2023-08-20T08:59:42;100748.63;;;26.87;67.38
46598;BME280;32318;48.858;8.252;2023-08-20T09:07:43;100738.34;;;27.04;67.37
46598;BME280;32318;48.858;8.252;2023-08-20T09:15:50;100739.00;;;27.22;66.86
46598;BME280;32318;48.858;8.252;2023-08-20T09:23:51;100753.72;;;27.43;66.56
46598;BME280;32318;48.858;8.252;2023-08-20T09:32:00;100747.81;;;27.72;65.42
46598;BME280;32318;48.858;8.252;2023-08-20T09:40:01;100742.66;;;27.81;65.10
46598;BME280;32318;48.858;8.252;2023-08-20T09:48:05;100741.63;;;28.02;65.16
46598;BME280;32318;48.858;8.252;2023-08-20T09:56:21;100729.06;;;28.12;64.84
46598;BME280;32318;48.858;8.252;2023-08-20T10:04:25;100725.28;;;28.39;63.85
46598;BME280;32318;48.858;8.252;2023-08-20T10:12:29;100726.94;;;28.55;62.93
46598;BME280;32318;48.858;8.252;2023-08-20T10:20:29;100714.63;;;28.73;62.27
46598;BME280;32318;48.858;8.252;2023-08-20T10:28:30;100714.31;;;29.06;60.88
46598;BME280;32318;48.858;8.252;2023-08-20T10:36:41;100710.72;;;29.21;59.96
46598;BME280;32318;48.858;8.252;2023-08-20T10:52:58;100699.41;;;29.48;58.97
46598;BME280;32318;48.858;8.252;2023-08-20T11:01:19;100703.19;;;29.73;56.32
46598;BME280;32318;48.858;8.252;2023-08-20T11:09:21;100690.19;;;29.79;56.52
46598;BME280;32318;48.858;8.252;2023-08-20T11:17:22;100678.06;;;29.95;55.64
46598;BME280;32318;48.858;8.252;2023-08-20T11:25:22;100685.41;;;30.05;54.66
46598;BME280;32318;48.858;8.252;2023-08-20T11:33:23;100681.50;;;30.16;53.59
46598;BME280;32318;48.858;8.252;2023-08-20T11:41:24;100672.22;;;30.42;51.99
46598;BME280;32318;48.858;8.252;2023-08-20T11:49:29;100670.75;;;30.55;52.55
46598;BME280;32318;48.858;8.252;2023-08-20T11:57:30;100666.38;;;30.83;50.72
46598;BME280;32318;48.858;8.252;2023-08-20T12:05:31;100665.78;;;30.86;50.59
46598;BME280;32318;48.858;8.252;2023-08-20T12:13:31;100659.66;;;30.94;49.37
46598;BME280;32318;48.858;8.252;2023-08-20T12:21:31;100654.91;;;31.00;48.68
46598;BME280;32318;48.858;8.252;2023-08-20T12:29:32;100653.88;;;31.20;49.06
46598;BME280;32318;48.858;8.252;2023-08-20T12:37:32;100648.78;;;31.33;49.33
46598;BME280;32318;48.858;8.252;2023-08-20T12:45:32;100630.50;;;31.37;48.83
46598;BME280;32318;48.858;8.252;2023-08-20T12:53:33;100639.28;;;31.63;47.77
46598;BME280;32318;48.858;8.252;2023-08-20T13:01:33;100630.06;;;31.92;46.75
46598;BME280;32318;48.858;8.252;2023-08-20T13:09:33;100622.84;;;31.77;46.84
46598;BME280;32318;48.858;8.252;2023-08-20T13:17:34;100627.47;;;32.01;47.60
46598;BME280;32318;48.858;8.252;2023-08-20T13:25:34;100616.25;;;32.11;47.95
46598;BME280;32318;48.858;8.252;2023-08-20T13:33:35;100610.97;;;32.15;47.78
46598;BME280;32318;48.858;8.252;2023-08-20T13:41:35;100621.25;;;32.28;47.91
46598;BME280;32318;48.858;8.252;2023-08-20T13:49:35;100611.09;;;32.43;46.34
46598;BME280;32318;48.858;8.252;2023-08-20T13:57:36;100618.44;;;32.47;47.24
46598;BME280;32318;48.858;8.252;2023-08-20T14:05:36;100605.56;;;32.43;46.20
46598;BME280;32318;48.858;8.252;2023-08-20T14:13:37;100605.03;;;32.41;45.21
46598;BME280;32318;48.858;8.252;2023-08-20T14:21:37;100595.91;;;32.40;45.65
46598;BME280;32318;48.858;8.252;2023-08-20T14:29:38;100600.88;;;32.57;45.43
46598;BME280;32318;48.858;8.252;2023-08-20T14:37:38;100589.88;;;32.52;44.95
46598;BME280;32318;48.858;8.252;2023-08-20T14:45:39;100594.00;;;32.54;44.91
46598;BME280;32318;48.858;8.252;2023-08-20T14:53:39;100593.91;;;32.60;44.30
46598;BME280;32318;48.858;8.252;2023-08-20T15:01:39;100578.66;;;32.62;43.46
46598;BME280;32318;48.858;8.252;2023-08-20T15:09:39;100577.53;;;32.63;41.76
46598;BME280;32318;48.858;8.252;2023-08-20T15:17:40;100582.63;;;32.56;42.92
46598;BME280;32318;48.858;8.252;2023-08-20T15:25:40;100572.41;;;32.43;41.93
46598;BME280;32318;48.858;8.252;2023-08-20T15:33:41;100574.28;;;32.28;41.40
46598;BME280;32318;48.858;8.252;2023-08-20T15:41:41;100568.03;;;32.22;40.56
46598;BME280;32318;48.858;8.252;2023-08-20T15:49:42;100570.03;;;32.17;41.21
46598;BME280;32318;48.858;8.252;2023-08-20T15:57:42;100574.31;;;32.09;40.63
46598;BME280;32318;48.858;8.252;2023-08-20T16:05:42;100580.44;;;32.06;40.61
46598;BME280;32318;48.858;8.252;2023-08-20T16:13:43;100564.25;;;31.99;40.94
46598;BME280;32318;48.858;8.252;2023-08-20T16:21:46;100559.31;;;31.96;41.55
46598;BME280;32318;48.858;8.252;2023-08-20T16:29:46;100559.13;;;31.92;43.05
46598;BME280;32318;48.858;8.252;2023-08-20T16:37:46;100563.59;;;31.88;42.48
46598;BME280;32318;48.858;8.252;2023-08-20T16:45:54;100564.66;;;31.73;43.83
46598;BME280;32318;48.858;8.252;2023-08-20T16:53:57;100566.38;;;31.69;44.58
46598;BME280;32318;48.858;8.252;2023-08-20T17:01:57;100566.25;;;31.55;44.72
46598;BME280;32318;48.858;8.252;2023-08-20T17:09:58;100563.94;;;31.43;45.09
46598;BME280;32318;48.858;8.252;2023-08-20T17:17:58;100563.53;;;31.31;45.70
46598;BME280;32318;48.858;8.252;2023-08-20T17:25:59;100572.88;;;31.16;46.36
46598;BME280;32318;48.858;8.252;2023-08-20T17:34:00;100570.25;;;31.01;46.56
46598;BME280;32318;48.858;8.252;2023-08-20T17:42:00;100570.72;;;30.83;47.73
46598;BME280;32318;48.858;8.252;2023-08-20T17:50:01;100574.22;;;30.65;48.67
46598;BME280;32318;48.858;8.252;2023-08-20T17:58:01;100586.25;;;30.45;49.82
46598;BME280;32318;48.858;8.252;2023-08-20T18:06:02;100585.06;;;30.22;50.90
46598;BME280;32318;48.858;8.252;2023-08-20T18:14:02;100588.56;;;29.98;51.80
46598;BME280;32318;48.858;8.252;2023-08-20T18:22:03;100585.94;;;29.72;52.40
46598;BME280;32318;48.858;8.252;2023-08-20T18:30:04;100593.25;;;29.42;53.33
46598;BME280;32318;48.858;8.252;2023-08-20T18:38:04;100592.44;;;29.31;54.30
46598;BME280;32318;48.858;8.252;2023-08-20T18:46:05;100611.25;;;29.03;55.53
46598;BME280;32318;48.858;8.252;2023-08-20T18:54:05;100622.00;;;28.79;56.45
46598;BME280;32318;48.858;8.252;2023-08-20T19:02:05;100624.75;;;28.63;56.99
46598;BME280;32318;48.858;8.252;2023-08-20T19:10:06;100636.59;;;28.38;58.46
46598;BME280;32318;48.858;8.252;2023-08-20T19:18:07;100648.41;;;28.33;58.75
46598;BME280;32318;48.858;8.252;2023-08-20T19:26:07;100653.03;;;28.23;59.80
46598;BME280;32318;48.858;8.252;2023-08-20T19:34:07;100652.69;;;28.03;60.68
46598;BME280;32318;48.858;8.252;2023-08-20T19:42:08;100671.31;;;27.86;61.07
46598;BME280;32318;48.858;8.252;2023-08-20T19:50:10;100674.03;;;27.70;62.17
46598;BME280;32318;48.858;8.252;2023-08-20T19:58:10;100680.00;;;27.57;61.84
46598;BME280;32318;48.858;8.252;2023-08-20T20:06:10;100692.59;;;27.48;62.15
46598;BME280;32318;48.858;8.252;2023-08-20T20:14:11;100690.56;;;27.33;62.51
46598;BME280;32318;48.858;8.252;2023-08-20T20:22:11;100695.69;;;27.24;62.97
46598;BME280;32318;48.858;8.252;2023-08-20T20:30:12;100694.50;;;27.04;63.81
46598;BME280;32318;48.858;8.252;2023-08-20T20:38:12;100696.88;;;26.96;63.71
46598;BME280;32318;48.858;8.252;2023-08-20T20:46:12;100708.59;;;26.86;64.03
46598;BME280;32318;48.858;8.252;2023-08-20T20:54:13;100704.69;;;26.76;64.79
46598;BME280;32318;48.858;8.252;2023-08-20T21:02:14;100706.72;;;26.64;64.68
46598;BME280;32318;48.858;8.252;2023-08-20T21:10:14;100712.84;;;26.44;65.83
46598;BME280;32318;48.858;8.252;2023-08-20T21:18:14;100709.50;;;26.37;66.12
46598;BME280;32318;48.858;8.252;2023-08-20T21:26:15;100726.19;;;26.35;66.18
46598;BME280;32318;48.858;8.252;2023-08-20T21:34:15;100731.50;;;26.20;66.53
46598;BME280;32318;48.858;8.252;2023-08-20T21:42:15;100730.66;;;25.97;67.15
46598;BME280;32318;48.858;8.252;2023-08-20T21:50:16;100724.75;;;25.83;67.40
46598;BME280;32318;48.858;8.252;2023-08-20T21:58:16;100729.41;;;25.82;68.29
46598;BME280;32318;48.858;8.252;2023-08-20T22:06:16;100740.06;;;25.84;68.25
46598;BME280;32318;48.858;8.252;2023-08-20T22:14:17;100737.34;;;25.84;67.62
46598;BME280;32318;48.858;8.252;2023-08-20T22:22:17;100749.94;;;25.85;68.08
46598;BME280;32318;48.858;8.252;2023-08-20T22:30:23;100746.63;;;25.83;68.29
46598;BME280;32318;48.858;8.252;2023-08-20T22:38:23;100742.19;;;25.77;67.90
46598;BME280;32318;48.858;8.252;2023-08-20T22:46:23;100739.03;;;25.68;68.25
46598;BME280;32318;48.858;8.252;2023-08-20T22:54:25;100732.34;;;25.59;68.48
46598;BME280;32318;48.858;8.252;2023-08-20T23:02:26;100730.63;;;25.52;68.46
46598;BME280;32318;48.858;8.252;2023-08-20T23:10:26;100721.78;;;25.45;68.16
46598;BME280;32318;48.858;8.252;2023-08-20T23:18:26;100725.63;;;25.27;68.87
46598;BME280;32318;48.858;8.252;2023-08-20T23:26:26;100731.16;;;25.15;68.77
46598;BME280;32318;48.858;8.252;2023-08-20T23:34:27;100732.16;;;25.09;68.47
46598;BME280;32318;48.858;8.252;2023-08-20T23:42:27;100721.66;;;25.01;68.30
46598;BME280;32318;48.858;8.252;2023-08-20T23:50:27;100725.72;;;24.98;68.88
46598;BME280;32318;48.858;8.252;2023-08-20T23:58:27;100718.66;;;25.02;68.57
